createdAt,value
2022-08-28T00:00:32.653Z,17.10
2022-08-28T00:03:02.332Z,17.10
2022-08-28T00:05:32.284Z,17.10
2022-08-28T00:08:00.979Z,17.10
2022-08-28T00:10:30.274Z,17.00
2022-08-28T00:12:58.412Z,17.00
2022-08-28T00:15:29.414Z,17.00
2022-08-28T00:17:57.836Z,17.00
2022-08-28T00:20:28.997Z,17.00
2022-08-28T00:22:57.509Z,16.90
2022-08-28T00:25:28.974Z,16.90
2022-08-28T00:27:58.594Z,16.90
2022-08-28T00:30:30.138Z,16.80
2022-08-28T00:33:00.895Z,16.80
2022-08-28T00:35:30.349Z,16.80
2022-08-28T00:37:58.577Z,16.80
2022-08-28T00:40:33.062Z,16.80
2022-08-28T00:43:01.948Z,16.80
2022-08-28T00:45:34.834Z,16.80
2022-08-28T00:48:05.666Z,16.70
2022-08-28T00:50:50.534Z,16.70
2022-08-28T00:53:19.705Z,16.70
2022-08-28T00:55:47.699Z,16.70
2022-08-28T00:58:16.183Z,16.70
2022-08-28T01:00:44.440Z,16.70
2022-08-28T01:03:12.466Z,16.60
2022-08-28T01:05:46.695Z,16.60
2022-08-28T01:08:14.708Z,16.60
2022-08-28T01:10:45.487Z,16.60
2022-08-28T01:13:13.691Z,16.60
2022-08-28T01:15:42.998Z,16.60
2022-08-28T01:18:15.618Z,16.50
2022-08-28T01:20:50.133Z,16.50
2022-08-28T01:23:29.333Z,16.50
2022-08-28T01:26:00.194Z,16.50
2022-08-28T01:28:29.385Z,16.50
2022-08-28T01:30:59.256Z,16.50
2022-08-28T01:33:28.178Z,16.50
2022-08-28T01:35:56.378Z,16.40
2022-08-28T01:38:27.061Z,16.40
2022-08-28T01:40:57.821Z,16.40
2022-08-28T01:43:31.318Z,16.40
2022-08-28T01:46:04.447Z,16.40
2022-08-28T01:48:36.068Z,16.30
2022-08-28T01:51:05.082Z,16.40
2022-08-28T01:53:34.564Z,16.30
2022-08-28T01:56:05.086Z,16.30
2022-08-28T01:58:38.256Z,16.30
2022-08-28T02:01:11.554Z,16.30
2022-08-28T02:03:40.268Z,16.30
2022-08-28T02:06:08.864Z,16.30
2022-08-28T02:08:37.193Z,16.20
2022-08-28T02:11:06.226Z,16.30
2022-08-28T02:13:37.717Z,16.20
2022-08-28T02:16:07.364Z,16.20
2022-08-28T02:18:35.485Z,16.20
2022-08-28T02:21:03.370Z,16.20
2022-08-28T02:23:31.320Z,16.10
2022-08-28T02:25:59.743Z,16.10
2022-08-28T02:28:27.904Z,16.10
2022-08-28T02:30:57.234Z,16.10
2022-08-28T02:33:25.218Z,16.10
2022-08-28T02:35:53.710Z,16.10
2022-08-28T02:38:22.560Z,16.10
2022-08-28T02:40:50.510Z,16.10
2022-08-28T02:43:18.387Z,16.00
2022-08-28T02:45:46.392Z,16.00
2022-08-28T02:48:17.695Z,16.00
2022-08-28T02:50:46.180Z,16.00
2022-08-28T02:53:14.353Z,16.00
2022-08-28T02:55:42.314Z,16.00
2022-08-28T02:58:10.445Z,15.90
2022-08-28T03:00:38.669Z,15.90
2022-08-28T03:03:06.581Z,15.90
2022-08-28T03:05:35.866Z,15.90
2022-08-28T03:08:04.315Z,15.80
2022-08-28T03:10:32.469Z,15.80
2022-08-28T03:13:00.437Z,15.80
2022-08-28T03:15:28.337Z,15.80
2022-08-28T03:17:56.270Z,15.80
2022-08-28T03:20:24.144Z,15.70
2022-08-28T03:23:10.790Z,15.80
2022-08-28T03:25:38.764Z,15.80
2022-08-28T03:28:06.749Z,15.70
2022-08-28T03:30:34.821Z,15.70
2022-08-28T03:33:03.201Z,15.70
2022-08-28T03:35:31.249Z,15.70
2022-08-28T03:38:00.808Z,15.60
2022-08-28T03:40:28.837Z,15.60
2022-08-28T03:42:57.057Z,15.60
2022-08-28T03:45:25.133Z,15.60
2022-08-28T03:47:53.621Z,15.60
2022-08-28T03:50:21.720Z,15.60
2022-08-28T03:52:49.974Z,15.60
2022-08-28T03:55:20.153Z,15.60
2022-08-28T03:57:48.143Z,15.50
2022-08-28T04:00:16.891Z,15.50
2022-08-28T04:02:46.171Z,15.50
2022-08-28T04:05:14.392Z,15.50
2022-08-28T04:07:42.320Z,15.50
2022-08-28T04:10:12.119Z,15.60
2022-08-28T04:12:41.404Z,15.50
2022-08-28T04:15:10.959Z,15.50
2022-08-28T04:17:41.064Z,15.50
2022-08-28T04:20:10.913Z,15.50
2022-08-28T04:22:38.966Z,15.50
2022-08-28T04:25:08.927Z,15.50
2022-08-28T04:27:37.046Z,15.50
2022-08-28T04:30:09.772Z,15.50
2022-08-28T04:32:39.395Z,15.40
2022-08-28T04:35:09.890Z,15.40
2022-08-28T04:37:38.652Z,15.40
2022-08-28T04:40:09.777Z,15.40
2022-08-28T04:42:38.585Z,15.50
2022-08-28T04:45:09.849Z,15.40
2022-08-28T04:47:38.645Z,15.50
2022-08-28T04:50:08.904Z,15.40
2022-08-28T04:52:36.834Z,15.40
2022-08-28T04:55:05.749Z,15.40
2022-08-28T04:57:36.356Z,15.40
2022-08-28T05:00:09.060Z,15.40
2022-08-28T05:02:37.591Z,15.40
2022-08-28T05:05:06.184Z,15.40
2022-08-28T05:07:35.013Z,15.40
2022-08-28T05:10:03.923Z,15.40
2022-08-28T05:12:32.398Z,15.50
2022-08-28T05:15:00.336Z,15.40
2022-08-28T05:17:29.734Z,15.50
2022-08-28T05:20:00.301Z,15.50
2022-08-28T05:22:28.882Z,15.50
2022-08-28T05:24:56.842Z,15.50
2022-08-28T05:27:25.647Z,15.50
2022-08-28T05:29:55.504Z,15.50
2022-08-28T05:32:26.385Z,15.50
2022-08-28T05:34:55.934Z,15.60
2022-08-28T05:37:23.853Z,15.60
2022-08-28T05:39:51.860Z,15.70
2022-08-28T05:42:19.909Z,15.70
2022-08-28T05:44:47.935Z,15.70
2022-08-28T05:47:22.538Z,15.70
2022-08-28T05:49:50.839Z,15.70
2022-08-28T05:52:21.805Z,15.80
2022-08-28T05:54:49.750Z,15.80
2022-08-28T05:57:17.669Z,15.90
2022-08-28T05:59:45.577Z,15.90
2022-08-28T06:02:13.596Z,15.90
2022-08-28T06:04:41.570Z,16.20
2022-08-28T06:07:12.098Z,16.00
2022-08-28T06:09:41.411Z,16.00
2022-08-28T06:12:10.418Z,16.20
2022-08-28T06:14:40.281Z,16.00
2022-08-28T06:17:08.994Z,16.10
2022-08-28T06:19:41.333Z,16.10
2022-08-28T06:22:12.252Z,16.20
2022-08-28T06:24:42.159Z,16.20
2022-08-28T06:27:10.406Z,16.40
2022-08-28T06:29:39.829Z,16.30
2022-08-28T06:32:09.089Z,16.30
2022-08-28T06:34:37.386Z,16.30
2022-08-28T06:37:05.482Z,16.40
2022-08-28T06:39:33.433Z,16.40
2022-08-28T06:42:02.905Z,16.50
2022-08-28T06:44:32.230Z,16.40
2022-08-28T06:47:00.476Z,16.60
2022-08-28T06:49:28.825Z,16.70
2022-08-28T06:51:57.076Z,16.60
2022-08-28T06:54:24.982Z,16.60
2022-08-28T06:56:53.484Z,16.70
2022-08-28T06:59:22.779Z,16.70
2022-08-28T07:01:53.592Z,16.80
2022-08-28T07:04:21.695Z,17.00
2022-08-28T07:06:54.159Z,17.10
2022-08-28T07:09:23.596Z,17.00
2022-08-28T07:11:52.061Z,17.10
2022-08-28T07:14:20.290Z,17.10
2022-08-28T07:16:49.784Z,17.20
2022-08-28T07:19:19.623Z,17.30
2022-08-28T07:21:48.150Z,17.50
2022-08-28T07:24:18.058Z,17.40
2022-08-28T07:26:47.803Z,17.50
2022-08-28T07:29:15.953Z,17.50
2022-08-28T07:31:49.142Z,17.60
2022-08-28T07:34:20.532Z,17.80
2022-08-28T07:36:48.587Z,17.70
2022-08-28T07:39:17.250Z,17.80
2022-08-28T07:41:46.834Z,17.80
2022-08-28T07:44:33.870Z,17.90
2022-08-28T07:47:05.535Z,17.90
2022-08-28T07:49:36.115Z,18.00
2022-08-28T07:52:05.102Z,18.10
2022-08-28T07:54:33.082Z,18.30
2022-08-28T07:57:02.177Z,18.30
2022-08-28T07:59:34.631Z,18.30
2022-08-28T08:02:05.717Z,18.50
2022-08-28T08:04:35.450Z,18.40
2022-08-28T08:07:05.098Z,18.50
2022-08-28T08:09:33.222Z,18.50
2022-08-28T08:12:01.427Z,18.60
2022-08-28T08:14:29.455Z,18.60
2022-08-28T08:16:57.382Z,18.70
2022-08-28T08:19:25.263Z,18.60
2022-08-28T08:21:55.185Z,18.70
2022-08-28T08:24:26.427Z,18.80
2022-08-28T08:27:00.201Z,18.90
2022-08-28T08:29:31.421Z,18.90
2022-08-28T08:32:05.631Z,19.00
2022-08-28T08:34:35.458Z,19.10
2022-08-28T08:37:05.560Z,19.10
2022-08-28T08:39:34.437Z,19.20
2022-08-28T08:42:06.000Z,19.30
2022-08-28T08:44:37.706Z,19.20
2022-08-28T08:47:14.927Z,19.30
2022-08-28T08:49:49.272Z,19.40
2022-08-28T08:52:35.866Z,19.40
2022-08-28T08:55:10.026Z,19.50
2022-08-28T08:57:39.677Z,19.60
2022-08-28T09:00:13.667Z,19.60
2022-08-28T09:02:50.690Z,19.70
2022-08-28T09:05:22.907Z,19.70
2022-08-28T09:07:57.525Z,19.70
2022-08-28T09:10:28.200Z,19.80
2022-08-28T09:13:04.932Z,19.80
2022-08-28T09:15:35.427Z,19.80
2022-08-28T09:18:11.763Z,19.90
2022-08-28T09:20:39.926Z,19.80
2022-08-28T09:23:13.421Z,20.00
2022-08-28T09:25:53.214Z,20.10
2022-08-28T09:28:24.906Z,19.90
2022-08-28T09:31:01.788Z,20.10
2022-08-28T09:33:40.153Z,20.00
2022-08-28T09:36:30.024Z,19.90
2022-08-28T09:39:14.412Z,20.10
2022-08-28T09:42:08.928Z,20.10
2022-08-28T09:44:52.977Z,20.20
2022-08-28T09:47:46.163Z,20.30
2022-08-28T09:50:36.381Z,20.30
2022-08-28T09:53:22.395Z,20.50
2022-08-28T09:56:04.040Z,20.50
2022-08-28T09:58:36.189Z,20.70
2022-08-28T10:01:12.396Z,20.80
2022-08-28T10:03:47.590Z,20.80
2022-08-28T10:06:22.705Z,20.90
2022-08-28T10:09:05.246Z,20.90
2022-08-28T10:11:44.826Z,21.00
2022-08-28T10:14:24.176Z,20.90
2022-08-28T10:17:03.737Z,20.90
2022-08-28T10:19:43.006Z,20.90
2022-08-28T10:22:21.358Z,21.00
2022-08-28T10:25:05.225Z,21.00
2022-08-28T10:27:49.180Z,21.00
2022-08-28T10:30:20.713Z,21.10
2022-08-28T10:33:17.580Z,21.10
2022-08-28T10:35:52.057Z,21.10
2022-08-28T10:38:25.042Z,21.10
2022-08-28T10:41:00.602Z,21.10
2022-08-28T10:43:35.025Z,21.10
2022-08-28T10:46:10.748Z,21.20
2022-08-28T10:48:47.508Z,21.30
2022-08-28T10:51:21.016Z,21.30
2022-08-28T10:54:08.472Z,21.40
2022-08-28T10:56:41.493Z,21.50
2022-08-28T10:59:12.126Z,21.60
2022-08-28T11:01:42.678Z,21.70
2022-08-28T11:04:24.844Z,21.70
2022-08-28T11:06:56.641Z,21.70
2022-08-28T11:09:32.482Z,21.70
2022-08-28T11:12:02.972Z,21.70
2022-08-28T11:14:35.469Z,21.80
2022-08-28T11:17:10.054Z,21.90
2022-08-28T11:19:58.389Z,22.00
2022-08-28T11:22:30.044Z,22.10
2022-08-28T11:25:09.814Z,22.20
2022-08-28T11:27:41.324Z,22.20
2022-08-28T11:30:35.664Z,22.30
2022-08-28T11:33:08.081Z,22.30
2022-08-28T11:35:50.070Z,22.30
2022-08-28T11:38:55.525Z,22.30
2022-08-28T11:41:27.502Z,22.40
2022-08-28T11:44:31.477Z,22.30
2022-08-28T11:47:38.775Z,22.30
2022-08-28T11:50:15.548Z,22.30
2022-08-28T11:53:20.479Z,22.40
2022-08-28T11:56:31.075Z,22.40
2022-08-28T11:59:13.638Z,22.50
2022-08-28T12:01:41.845Z,22.50
2022-08-28T12:04:14.359Z,22.50
2022-08-28T12:06:51.907Z,22.60
2022-08-28T12:09:40.729Z,22.70
2022-08-28T12:12:13.492Z,22.80
2022-08-28T12:15:05.185Z,22.80
2022-08-28T12:17:58.445Z,22.80
2022-08-28T12:20:57.752Z,22.80
2022-08-28T12:23:36.276Z,22.90
2022-08-28T12:26:07.413Z,23.00
2022-08-28T12:28:45.001Z,23.10
2022-08-28T12:31:58.195Z,23.10
2022-08-28T12:34:39.981Z,23.10
2022-08-28T12:37:29.366Z,23.10
2022-08-28T12:40:00.207Z,23.20
2022-08-28T12:42:32.697Z,23.20
2022-08-28T12:45:02.870Z,23.30
2022-08-28T12:47:31.341Z,23.40
2022-08-28T12:49:59.340Z,23.40
2022-08-28T12:52:28.674Z,23.30
2022-08-28T12:54:58.181Z,23.40
2022-08-28T12:57:26.525Z,23.30
2022-08-28T12:59:57.726Z,23.30
2022-08-28T13:02:29.905Z,23.30
2022-08-28T13:05:01.236Z,23.30
2022-08-28T13:07:35.245Z,23.30
2022-08-28T13:10:07.510Z,23.30
2022-08-28T13:12:55.328Z,23.30
2022-08-28T13:15:50.576Z,23.30
2022-08-28T13:18:42.981Z,23.30
2022-08-28T13:21:32.755Z,23.30
2022-08-28T13:24:38.724Z,23.30
2022-08-28T13:27:23.542Z,23.50
2022-08-28T13:30:23.204Z,23.60
2022-08-28T13:32:58.935Z,23.60
2022-08-28T13:35:35.421Z,23.70
2022-08-28T13:38:05.029Z,23.70
2022-08-28T13:40:58.815Z,23.70
2022-08-28T13:43:29.300Z,23.70
2022-08-28T13:45:57.720Z,23.70
2022-08-28T13:48:28.400Z,23.70
2022-08-28T13:50:59.937Z,23.80
2022-08-28T13:53:28.088Z,23.70
2022-08-28T13:55:58.424Z,23.80
2022-08-28T13:58:26.597Z,23.90
2022-08-28T14:00:55.460Z,24.10
2022-08-28T14:03:38.669Z,24.30
2022-08-28T14:06:11.634Z,24.30
2022-08-28T14:08:40.802Z,24.40
2022-08-28T14:11:12.683Z,24.50
2022-08-28T14:13:46.891Z,24.50
2022-08-28T14:16:24.122Z,24.60
2022-08-28T14:18:52.682Z,24.60
2022-08-28T14:21:20.866Z,24.60
2022-08-28T14:23:48.963Z,24.60
2022-08-28T14:26:19.487Z,24.70
2022-08-28T14:28:47.489Z,24.70
2022-08-28T14:31:15.507Z,24.70
2022-08-28T14:33:45.253Z,24.70
2022-08-28T14:36:16.711Z,24.70
2022-08-28T14:38:44.644Z,24.80
2022-08-28T14:41:14.717Z,24.80
2022-08-28T14:43:44.165Z,24.80
2022-08-28T14:46:16.798Z,24.80
2022-08-28T14:48:44.908Z,24.80
2022-08-28T14:51:13.115Z,24.80
2022-08-28T14:53:41.214Z,24.80
2022-08-28T14:56:11.951Z,24.80
2022-08-28T14:58:40.264Z,24.80
2022-08-28T15:01:10.292Z,24.80
2022-08-28T15:03:38.806Z,24.90
2022-08-28T15:06:09.130Z,24.90
2022-08-28T15:08:38.302Z,24.90
2022-08-28T15:11:07.795Z,25.00
2022-08-28T15:13:35.914Z,25.00
2022-08-28T15:16:06.500Z,25.00
2022-08-28T15:18:46.710Z,25.00
2022-08-28T15:21:19.223Z,24.90
2022-08-28T15:23:49.168Z,24.80
2022-08-28T15:26:17.246Z,24.70
2022-08-28T15:28:45.466Z,24.50
2022-08-28T15:31:13.612Z,24.50
2022-08-28T15:33:45.191Z,24.50
2022-08-28T15:36:15.044Z,24.60
2022-08-28T15:39:00.663Z,24.50
2022-08-28T15:41:29.354Z,24.50
2022-08-28T15:44:00.100Z,24.50
2022-08-28T15:46:31.425Z,24.50
2022-08-28T15:48:59.494Z,24.60
2022-08-28T15:51:28.835Z,24.50
2022-08-28T15:53:58.837Z,24.50
2022-08-28T15:56:27.474Z,24.50
2022-08-28T15:58:55.408Z,24.60
2022-08-28T16:01:23.478Z,24.60
2022-08-28T16:03:51.353Z,24.70
2022-08-28T16:06:21.297Z,24.70
2022-08-28T16:08:50.827Z,24.70
2022-08-28T16:11:20.807Z,24.60
2022-08-28T16:13:48.714Z,24.60
2022-08-28T16:16:17.615Z,24.60
2022-08-28T16:18:46.367Z,24.70
2022-08-28T16:21:14.736Z,24.60
2022-08-28T16:23:42.667Z,24.50
2022-08-28T16:26:12.253Z,24.50
2022-08-28T16:28:40.282Z,24.50
2022-08-28T16:31:18.919Z,24.50
2022-08-28T16:33:47.702Z,24.40
2022-08-28T16:36:16.517Z,24.30
2022-08-28T16:38:46.536Z,24.30
2022-08-28T16:41:17.937Z,24.20
2022-08-28T16:43:46.055Z,24.20
2022-08-28T16:46:15.664Z,24.10
2022-08-28T16:48:45.040Z,24.00
2022-08-28T16:51:13.749Z,23.90
2022-08-28T16:53:42.778Z,23.90
2022-08-28T16:56:10.820Z,23.80
2022-08-28T16:58:41.131Z,23.70
2022-08-28T17:01:10.727Z,23.60
2022-08-28T17:03:57.092Z,23.60
2022-08-28T17:06:28.392Z,23.50
2022-08-28T17:08:57.416Z,23.40
2022-08-28T17:11:26.512Z,23.40
2022-08-28T17:13:56.393Z,23.30
2022-08-28T17:16:26.282Z,23.20
2022-08-28T17:18:54.333Z,23.10
2022-08-28T17:21:43.204Z,23.00
2022-08-28T17:24:12.807Z,23.00
2022-08-28T17:26:41.653Z,23.10
2022-08-28T17:29:11.023Z,23.10
2022-08-28T17:31:39.323Z,23.20
2022-08-28T17:34:08.687Z,23.20
2022-08-28T17:36:38.764Z,23.10
2022-08-28T17:39:09.962Z,23.10
2022-08-28T17:41:38.338Z,23.10
2022-08-28T17:44:07.762Z,23.10
2022-08-28T17:46:38.327Z,23.00
2022-08-28T17:49:07.566Z,23.00
2022-08-28T17:51:42.254Z,23.00
2022-08-28T17:54:12.731Z,22.90
2022-08-28T17:56:41.194Z,22.90
2022-08-28T17:59:10.029Z,22.80
2022-08-28T18:01:39.970Z,22.70
2022-08-28T18:04:08.930Z,22.70
2022-08-28T18:06:37.238Z,22.70
2022-08-28T18:09:05.690Z,22.60
2022-08-28T18:11:33.760Z,22.50
2022-08-28T18:14:01.738Z,22.50
2022-08-28T18:16:32.014Z,22.40
2022-08-28T18:19:01.698Z,22.40
2022-08-28T18:21:30.187Z,22.30
2022-08-28T18:23:58.728Z,22.30
2022-08-28T18:26:27.024Z,22.20
2022-08-28T18:28:55.165Z,22.10
2022-08-28T18:31:23.220Z,22.10
2022-08-28T18:33:51.273Z,22.10
2022-08-28T18:36:22.974Z,22.00
2022-08-28T18:38:51.905Z,22.00
2022-08-28T18:41:20.501Z,21.90
2022-08-28T18:43:48.599Z,21.80
2022-08-28T18:46:16.835Z,21.80
2022-08-28T18:48:44.790Z,21.70
2022-08-28T18:51:13.527Z,21.70
2022-08-28T18:53:43.574Z,21.60
2022-08-28T18:56:12.591Z,21.50
2022-08-28T18:58:41.718Z,21.50
2022-08-28T19:01:10.430Z,21.40
2022-08-28T19:03:38.863Z,21.40
2022-08-28T19:06:07.567Z,21.30
2022-08-28T19:08:36.981Z,21.30
2022-08-28T19:11:08.972Z,21.20
2022-08-28T19:13:37.537Z,21.20
2022-08-28T19:16:07.766Z,21.10
2022-08-28T19:18:36.014Z,21.10
2022-08-28T19:21:05.611Z,21.00
2022-08-28T19:23:33.826Z,21.00
2022-08-28T19:26:01.994Z,21.00
2022-08-28T19:28:31.268Z,20.90
2022-08-28T19:30:59.266Z,20.90
2022-08-28T19:33:27.218Z,20.80
2022-08-28T19:35:55.468Z,20.80
2022-08-28T19:38:23.622Z,20.80
2022-08-28T19:40:51.708Z,20.70
2022-08-28T19:43:19.654Z,20.70
2022-08-28T19:45:49.879Z,20.70
2022-08-28T19:48:17.904Z,20.60
2022-08-28T19:50:45.780Z,20.60
2022-08-28T19:53:13.682Z,20.60
2022-08-28T19:55:41.640Z,20.50
2022-08-28T19:58:10.671Z,20.50
2022-08-28T20:00:38.740Z,20.50
2022-08-28T20:03:08.633Z,20.50
2022-08-28T20:05:38.328Z,20.40
2022-08-28T20:08:06.604Z,20.40
2022-08-28T20:10:34.585Z,20.40
2022-08-28T20:13:02.757Z,20.40
2022-08-28T20:15:30.838Z,20.30
2022-08-28T20:17:58.830Z,20.30
2022-08-28T20:20:30.020Z,20.30
2022-08-28T20:22:58.170Z,20.30
2022-08-28T20:25:27.226Z,20.30
2022-08-28T20:27:59.529Z,20.20
2022-08-28T20:30:29.789Z,20.20
2022-08-28T20:32:58.267Z,20.20
2022-08-28T20:35:27.732Z,20.10
2022-08-28T20:37:55.735Z,20.10
2022-08-28T20:40:24.315Z,20.10
2022-08-28T20:42:52.425Z,20.10
2022-08-28T20:45:20.702Z,20.00
2022-08-28T20:47:48.629Z,20.00
2022-08-28T20:50:16.678Z,19.90
2022-08-28T20:52:46.015Z,19.90
2022-08-28T20:55:14.870Z,19.90
2022-08-28T20:57:42.798Z,19.90
2022-08-28T21:00:12.649Z,19.80
2022-08-28T21:02:40.593Z,19.80
2022-08-28T21:05:09.171Z,19.80
2022-08-28T21:07:37.812Z,19.80
2022-08-28T21:10:08.300Z,19.70
2022-08-28T21:12:37.336Z,19.70
2022-08-28T21:15:06.433Z,19.70
2022-08-28T21:17:34.463Z,19.70
2022-08-28T21:20:06.692Z,19.60
2022-08-28T21:22:36.003Z,19.60
2022-08-28T21:25:04.706Z,19.60
2022-08-28T21:27:34.429Z,19.50
2022-08-28T21:30:02.807Z,19.50
2022-08-28T21:32:33.866Z,19.40
2022-08-28T21:35:02.329Z,19.40
2022-08-28T21:37:31.220Z,19.40
2022-08-28T21:40:00.698Z,19.40
2022-08-28T21:42:29.353Z,19.30
2022-08-28T21:44:58.620Z,19.30
2022-08-28T21:47:26.721Z,19.30
2022-08-28T21:49:56.987Z,19.20
2022-08-28T21:52:27.338Z,19.20
2022-08-28T21:54:58.449Z,19.20
2022-08-28T21:57:26.681Z,19.10
2022-08-28T21:59:55.649Z,19.10
2022-08-28T22:02:25.623Z,19.10
2022-08-28T22:04:54.111Z,19.00
2022-08-28T22:07:22.429Z,19.00
2022-08-28T22:09:50.749Z,18.90
2022-08-28T22:12:18.773Z,18.90
2022-08-28T22:14:46.938Z,18.90
2022-08-28T22:17:16.249Z,18.80
2022-08-28T22:19:46.824Z,18.80
2022-08-28T22:22:32.449Z,18.80
2022-08-28T22:25:00.397Z,18.70
2022-08-28T22:27:28.533Z,18.70
2022-08-28T22:29:57.172Z,18.70
2022-08-28T22:32:26.913Z,18.60
2022-08-28T22:34:56.282Z,18.60
2022-08-28T22:37:24.973Z,18.60
2022-08-28T22:39:53.160Z,18.50
2022-08-28T22:42:21.064Z,18.50
2022-08-28T22:44:48.937Z,18.50
2022-08-28T22:47:18.966Z,18.40
2022-08-28T22:49:47.117Z,18.40
2022-08-28T22:52:16.844Z,18.40
2022-08-28T22:54:44.750Z,18.30
2022-08-28T22:57:12.741Z,18.30
2022-08-28T22:59:42.126Z,18.20
2022-08-28T23:02:12.158Z,18.20
2022-08-28T23:04:40.512Z,18.20
2022-08-28T23:07:08.844Z,18.20
2022-08-28T23:09:38.984Z,18.20
2022-08-28T23:12:09.204Z,18.10
2022-08-28T23:14:37.496Z,18.00
2022-08-28T23:17:05.521Z,18.00
2022-08-28T23:19:34.497Z,18.00
2022-08-28T23:22:02.457Z,17.90
2022-08-28T23:24:31.402Z,17.90
2022-08-28T23:27:19.454Z,17.90
2022-08-28T23:29:51.743Z,17.90
2022-08-28T23:32:21.486Z,17.80
2022-08-28T23:34:49.446Z,17.80
2022-08-28T23:37:17.538Z,17.80
2022-08-28T23:39:45.483Z,17.70
2022-08-28T23:42:14.748Z,17.70
2022-08-28T23:44:42.669Z,17.60
2022-08-28T23:47:10.585Z,17.60
2022-08-28T23:49:42.715Z,17.50
2022-08-28T23:52:11.717Z,17.50
2022-08-28T23:54:40.500Z,17.50
2022-08-28T23:57:11.041Z,17.50
2022-08-28T23:59:40.528Z,17.40
